createdAt,value
2022-07-30T00:01:36.253Z,99569.88
2022-07-30T00:04:04.418Z,99573.87
2022-07-30T00:06:32.759Z,99576.19
2022-07-30T00:09:00.194Z,99576.53
2022-07-30T00:11:28.323Z,99585.91
2022-07-30T00:13:56.197Z,99581.78
2022-07-30T00:16:23.758Z,99587.63
2022-07-30T00:18:51.676Z,99589.97
2022-07-30T00:21:34.534Z,99584.28
2022-07-30T00:24:04.932Z,99586.94
2022-07-30T00:26:32.584Z,99582.13
2022-07-30T00:29:00.007Z,99575.19
2022-07-30T00:31:29.543Z,99574.34
2022-07-30T00:33:57.109Z,99576.47
2022-07-30T00:36:24.627Z,99574.66
2022-07-30T00:38:52.354Z,99565.09
2022-07-30T00:41:20.310Z,99572.16
2022-07-30T00:43:48.061Z,99563.50
2022-07-30T00:46:15.879Z,99559.41
2022-07-30T00:48:43.713Z,99563.75
2022-07-30T00:51:11.224Z,99562.25
2022-07-30T00:53:39.323Z,99568.50
2022-07-30T00:56:07.581Z,99564.72
2022-07-30T00:58:35.360Z,99564.56
2022-07-30T01:01:03.852Z,99567.97
2022-07-30T01:03:31.369Z,99561.97
2022-07-30T01:05:58.892Z,99558.00
2022-07-30T01:08:26.609Z,99563.56
2022-07-30T01:10:54.078Z,99562.78
2022-07-30T01:13:21.528Z,99568.47
2022-07-30T01:15:49.288Z,99565.66
2022-07-30T01:18:17.575Z,99569.75
2022-07-30T01:21:08.256Z,99569.91
2022-07-30T01:23:43.591Z,99560.38
2022-07-30T01:26:12.634Z,99560.53
2022-07-30T01:28:42.810Z,99558.97
2022-07-30T01:31:11.194Z,99564.75
2022-07-30T01:33:41.106Z,99558.56
2022-07-30T01:36:12.279Z,99570.03
2022-07-30T01:38:40.573Z,99571.94
2022-07-30T01:41:08.604Z,99580.53
2022-07-30T01:43:37.064Z,99574.56
2022-07-30T01:46:06.169Z,99573.28
2022-07-30T01:48:36.220Z,99571.56
2022-07-30T01:51:05.559Z,99557.88
2022-07-30T01:53:37.248Z,99557.19
2022-07-30T01:56:05.857Z,99557.47
2022-07-30T01:58:40.306Z,99552.88
2022-07-30T02:01:09.092Z,99551.75
2022-07-30T02:03:37.010Z,99544.19
2022-07-30T02:06:08.483Z,99538.31
2022-07-30T02:08:41.583Z,99524.97
2022-07-30T02:11:15.645Z,99537.63
2022-07-30T02:13:51.063Z,99531.00
2022-07-30T02:16:24.557Z,99522.25
2022-07-30T02:18:58.768Z,99518.06
2022-07-30T02:21:36.412Z,99519.50
2022-07-30T02:24:06.397Z,99512.53
2022-07-30T02:26:35.774Z,99511.31
2022-07-30T02:29:11.111Z,99505.41
2022-07-30T02:31:40.585Z,99503.41
2022-07-30T02:34:09.379Z,99489.56
2022-07-30T02:36:37.982Z,99493.41
2022-07-30T02:39:06.610Z,99483.09
2022-07-30T02:41:36.650Z,99486.66
2022-07-30T02:44:04.647Z,99487.25
2022-07-30T02:46:32.768Z,99489.66
2022-07-30T02:49:03.008Z,99494.16
2022-07-30T02:51:30.851Z,99496.22
2022-07-30T02:54:00.261Z,99492.06
2022-07-30T02:56:28.450Z,99496.31
2022-07-30T02:58:57.727Z,99494.28
2022-07-30T03:01:26.683Z,99495.56
2022-07-30T03:03:54.489Z,99502.62
2022-07-30T03:06:25.549Z,99491.81
2022-07-30T03:08:54.253Z,99495.84
2022-07-30T03:11:22.652Z,99490.41
2022-07-30T03:13:50.409Z,99494.59
2022-07-30T03:16:20.000Z,99497.25
2022-07-30T03:18:48.067Z,99491.66
2022-07-30T03:21:16.165Z,99490.81
2022-07-30T03:23:44.567Z,99496.22
2022-07-30T03:26:13.047Z,99489.84
2022-07-30T03:28:41.046Z,99488.44
2022-07-30T03:31:10.648Z,99488.66
2022-07-30T03:33:40.331Z,99484.38
2022-07-30T03:36:09.238Z,99488.84
2022-07-30T03:38:37.854Z,99483.22
2022-07-30T03:41:07.046Z,99482.37
2022-07-30T03:43:35.408Z,99486.56
2022-07-30T03:46:03.918Z,99488.81
2022-07-30T03:48:34.117Z,99487.31
2022-07-30T03:51:07.832Z,99480.22
2022-07-30T03:53:35.747Z,99486.22
2022-07-30T03:56:05.116Z,99490.16
2022-07-30T03:58:37.757Z,99484.97
2022-07-30T04:01:05.853Z,99487.31
2022-07-30T04:03:33.902Z,99485.38
2022-07-30T04:06:02.322Z,99484.03
2022-07-30T04:08:30.154Z,99477.66
2022-07-30T04:10:58.007Z,99484.66
2022-07-30T04:13:27.759Z,99489.44
2022-07-30T04:16:39.425Z,99487.41
2022-07-30T04:18:59.383Z,99496.88
2022-07-30T04:21:28.078Z,99491.34
2022-07-30T04:24:03.718Z,99499.53
2022-07-30T04:26:35.504Z,99493.56
2022-07-30T04:29:05.823Z,99499.56
2022-07-30T04:31:40.573Z,99497.09
2022-07-30T04:34:13.228Z,99508.66
2022-07-30T04:36:41.688Z,99507.25
2022-07-30T04:39:10.134Z,99523.25
2022-07-30T04:41:49.727Z,99527.75
2022-07-30T04:44:20.631Z,99517.41
2022-07-30T04:46:49.125Z,99527.81
2022-07-30T04:49:18.334Z,99528.81
2022-07-30T04:51:46.867Z,99526.91
2022-07-30T04:54:16.053Z,99533.25
2022-07-30T04:56:53.131Z,99533.88
2022-07-30T04:59:29.253Z,99525.25
2022-07-30T05:01:59.329Z,99532.78
2022-07-30T05:04:28.377Z,99537.75
2022-07-30T05:06:56.960Z,99540.88
2022-07-30T05:09:25.048Z,99541.56
2022-07-30T05:11:54.117Z,99542.41
2022-07-30T05:14:23.078Z,99551.25
2022-07-30T05:16:51.900Z,99545.50
2022-07-30T05:19:20.077Z,99547.25
2022-07-30T05:21:48.047Z,99546.56
2022-07-30T05:24:17.044Z,99550.97
2022-07-30T05:26:46.613Z,99542.47
2022-07-30T05:29:19.621Z,99543.16
2022-07-30T05:31:48.617Z,99545.59
2022-07-30T05:34:16.830Z,99541.13
2022-07-30T05:36:45.225Z,99548.47
2022-07-30T05:39:13.264Z,99540.38
2022-07-30T05:41:41.962Z,99540.31
2022-07-30T05:44:09.838Z,99541.75
2022-07-30T05:46:37.947Z,99538.38
2022-07-30T05:49:06.557Z,99541.59
2022-07-30T05:51:34.298Z,99548.94
2022-07-30T05:54:01.763Z,99556.50
2022-07-30T05:56:30.913Z,99552.78
2022-07-30T05:58:59.409Z,99552.37
2022-07-30T06:01:28.047Z,99548.38
2022-07-30T06:03:56.645Z,99544.28
2022-07-30T06:06:35.155Z,99561.22
2022-07-30T06:09:02.892Z,99562.03
2022-07-30T06:11:30.274Z,99567.59
2022-07-30T06:13:57.836Z,99569.88
2022-07-30T06:16:25.679Z,99569.31
2022-07-30T06:18:53.262Z,99569.03
2022-07-30T06:21:21.332Z,99572.53
2022-07-30T06:23:50.382Z,99574.69
2022-07-30T06:26:18.034Z,99571.34
2022-07-30T06:28:46.141Z,99562.12
2022-07-30T06:31:15.010Z,99571.72
2022-07-30T06:33:43.294Z,99577.31
2022-07-30T06:36:14.148Z,99570.69
2022-07-30T06:38:43.727Z,99580.66
2022-07-30T06:41:12.762Z,99577.59
2022-07-30T06:43:41.815Z,99583.72
2022-07-30T06:46:11.267Z,99576.63
2022-07-30T06:48:39.863Z,99580.28
2022-07-30T06:51:07.334Z,99576.50
2022-07-30T06:53:42.359Z,99582.34
2022-07-30T06:56:15.727Z,99569.13
2022-07-30T06:58:44.128Z,99574.00
2022-07-30T07:01:15.476Z,99565.13
2022-07-30T07:03:42.932Z,99563.34
2022-07-30T07:06:11.237Z,99564.72
2022-07-30T07:08:38.997Z,99563.94
2022-07-30T07:11:06.693Z,99566.25
2022-07-30T07:13:34.738Z,99555.75
2022-07-30T07:16:02.920Z,99560.38
2022-07-30T07:18:30.557Z,99555.12
2022-07-30T07:20:58.691Z,99563.66
2022-07-30T07:23:26.321Z,99556.97
2022-07-30T07:26:11.837Z,99546.97
2022-07-30T07:28:40.244Z,99548.00
2022-07-30T07:31:08.786Z,99546.16
2022-07-30T07:33:37.504Z,99546.66
2022-07-30T07:36:05.225Z,99551.06
2022-07-30T07:38:33.141Z,99556.47
2022-07-30T07:41:01.088Z,99568.44
2022-07-30T07:43:29.008Z,99567.50
2022-07-30T07:45:57.488Z,99566.69
2022-07-30T07:48:25.820Z,99579.75
2022-07-30T07:50:59.673Z,99577.41
2022-07-30T07:53:28.174Z,99575.41
2022-07-30T07:55:57.166Z,99579.91
2022-07-30T07:58:26.101Z,99593.19
2022-07-30T08:00:55.209Z,99593.09
2022-07-30T08:03:23.238Z,99591.66
2022-07-30T08:05:58.142Z,99583.72
2022-07-30T08:08:38.021Z,99600.03
2022-07-30T08:11:08.323Z,99592.28
2022-07-30T08:13:51.138Z,99590.91
2022-07-30T08:16:34.855Z,99589.72
2022-07-30T08:19:04.547Z,99608.16
2022-07-30T08:21:34.604Z,99610.50
2022-07-30T08:24:02.319Z,99611.94
2022-07-30T08:26:30.155Z,99606.78
2022-07-30T08:28:58.871Z,99609.84
2022-07-30T08:31:26.312Z,99610.78
2022-07-30T08:33:54.330Z,99615.94
2022-07-30T08:36:26.088Z,99625.75
2022-07-30T08:38:54.304Z,99619.81
2022-07-30T08:41:22.319Z,99621.13
2022-07-30T08:43:50.854Z,99625.66
2022-07-30T08:46:23.195Z,99622.66
2022-07-30T08:48:52.245Z,99628.66
2022-07-30T08:51:20.064Z,99627.56
2022-07-30T08:53:49.893Z,99621.75
2022-07-30T08:56:18.075Z,99622.81
2022-07-30T08:58:46.283Z,99628.47
2022-07-30T09:01:16.982Z,99635.50
2022-07-30T09:03:44.714Z,99639.81
2022-07-30T09:06:12.824Z,99645.00
2022-07-30T09:08:42.371Z,99647.81
2022-07-30T09:11:10.156Z,99647.22
2022-07-30T09:13:44.522Z,99648.53
2022-07-30T09:16:26.155Z,99639.78
2022-07-30T09:18:54.707Z,99635.69
2022-07-30T09:21:24.149Z,99621.59
2022-07-30T09:24:11.300Z,99634.53
2022-07-30T09:27:03.375Z,99633.72
2022-07-30T09:29:39.386Z,99637.25
2022-07-30T09:32:21.758Z,99629.72
2022-07-30T09:35:12.653Z,99643.06
2022-07-30T09:37:42.643Z,99648.03
2022-07-30T09:40:16.287Z,99654.84
2022-07-30T09:42:46.534Z,99684.44
2022-07-30T09:45:16.014Z,99706.41
2022-07-30T09:47:45.195Z,99717.94
2022-07-30T09:50:29.472Z,99689.28
2022-07-30T09:53:09.202Z,99649.72
2022-07-30T09:55:41.177Z,99618.91
2022-07-30T09:58:13.065Z,99616.34
2022-07-30T10:00:47.651Z,99627.25
2022-07-30T10:03:33.712Z,99626.31
2022-07-30T10:06:33.361Z,99623.97
2022-07-30T10:09:01.553Z,99620.66
2022-07-30T10:11:42.182Z,99622.31
2022-07-30T10:14:10.103Z,99616.06
2022-07-30T10:16:37.985Z,99640.19
2022-07-30T10:19:07.109Z,99641.38
2022-07-30T10:21:49.785Z,99642.37
2022-07-30T10:24:27.052Z,99647.59
2022-07-30T10:26:58.701Z,99644.88
2022-07-30T10:29:34.073Z,99658.13
2022-07-30T10:32:02.632Z,99653.81
2022-07-30T10:34:34.231Z,99648.50
2022-07-30T10:37:06.605Z,99660.00
2022-07-30T10:39:47.267Z,99668.59
2022-07-30T10:42:31.009Z,99665.13
2022-07-30T10:45:19.255Z,99660.22
2022-07-30T10:47:49.438Z,99655.69
2022-07-30T10:50:22.497Z,99663.31
2022-07-30T10:52:59.355Z,99656.34
2022-07-30T10:55:39.052Z,99651.47
2022-07-30T10:58:14.306Z,99653.09
2022-07-30T11:00:51.851Z,99642.53
2022-07-30T11:03:23.464Z,99643.66
2022-07-30T11:05:53.160Z,99640.34
2022-07-30T11:08:35.963Z,99635.84
2022-07-30T11:11:19.253Z,99618.63
2022-07-30T11:13:55.358Z,99611.97
2022-07-30T11:16:42.926Z,99609.47
2022-07-30T11:19:56.792Z,99597.81
2022-07-30T11:22:31.666Z,99588.91
2022-07-30T11:25:02.776Z,99581.03
2022-07-30T11:27:49.037Z,99574.81
2022-07-30T11:30:16.971Z,99570.97
2022-07-30T11:32:48.329Z,99581.37
2022-07-30T11:35:23.630Z,99588.25
2022-07-30T11:38:04.616Z,99579.84
2022-07-30T11:40:47.270Z,99576.09
2022-07-30T11:43:34.502Z,99579.66
2022-07-30T11:46:16.401Z,99577.53
2022-07-30T11:48:56.731Z,99578.12
2022-07-30T11:51:24.656Z,99571.91
2022-07-30T11:54:06.521Z,99567.28
2022-07-30T11:56:34.126Z,99560.00
2022-07-30T11:59:06.166Z,99559.00
2022-07-30T12:01:34.959Z,99564.84
2022-07-30T12:04:04.175Z,99554.28
2022-07-30T12:06:33.554Z,99553.28
2022-07-30T12:09:00.973Z,99543.44
2022-07-30T12:11:33.245Z,99542.91
2022-07-30T12:14:02.202Z,99545.97
2022-07-30T12:16:31.522Z,99542.50
2022-07-30T12:19:03.939Z,99532.28
2022-07-30T12:21:31.925Z,99526.78
2022-07-30T12:24:07.617Z,99522.50
2022-07-30T12:26:35.675Z,99519.97
2022-07-30T12:29:14.020Z,99515.44
2022-07-30T12:31:42.000Z,99517.22
2022-07-30T12:34:23.351Z,99524.69
2022-07-30T12:36:51.077Z,99526.00
2022-07-30T12:39:21.056Z,99527.56
2022-07-30T12:41:50.753Z,99523.13
2022-07-30T12:44:41.271Z,99534.47
2022-07-30T12:47:26.371Z,99527.59
2022-07-30T12:49:55.641Z,99524.09
2022-07-30T12:52:27.803Z,99535.22
2022-07-30T12:55:00.450Z,99520.63
2022-07-30T12:57:28.051Z,99527.25
2022-07-30T13:00:07.302Z,99530.91
2022-07-30T13:02:35.106Z,99535.22
2022-07-30T13:05:11.309Z,99534.31
2022-07-30T13:08:00.021Z,99535.37
2022-07-30T13:10:31.038Z,99532.38
2022-07-30T13:12:59.928Z,99537.97
2022-07-30T13:15:27.662Z,99538.91
2022-07-30T13:17:55.234Z,99548.44
2022-07-30T13:20:22.827Z,99554.19
2022-07-30T13:22:50.544Z,99555.88
2022-07-30T13:25:18.206Z,99550.91
2022-07-30T13:27:45.717Z,99540.78
2022-07-30T13:30:13.852Z,99544.37
2022-07-30T13:32:41.271Z,99534.63
2022-07-30T13:35:09.179Z,99522.53
2022-07-30T13:37:38.622Z,99522.38
2022-07-30T13:40:07.003Z,99515.38
2022-07-30T13:42:35.616Z,99512.47
2022-07-30T13:45:03.372Z,99503.28
2022-07-30T13:47:30.757Z,99504.16
2022-07-30T13:49:58.164Z,99516.38
2022-07-30T13:52:25.825Z,99517.31
2022-07-30T13:54:54.374Z,99527.16
2022-07-30T13:57:21.752Z,99531.56
2022-07-30T13:59:49.440Z,99529.94
2022-07-30T14:02:16.823Z,99550.00
2022-07-30T14:04:44.464Z,99553.22
2022-07-30T14:07:11.893Z,99544.28
2022-07-30T14:09:44.876Z,99540.69
2022-07-30T14:12:15.777Z,99544.31
2022-07-30T14:14:43.236Z,99549.47
2022-07-30T14:17:10.666Z,99547.41
2022-07-30T14:19:38.362Z,99549.19
2022-07-30T14:22:05.767Z,99544.63
2022-07-30T14:24:33.362Z,99544.34
2022-07-30T14:27:01.342Z,99539.19
2022-07-30T14:29:29.002Z,99550.66
2022-07-30T14:31:56.789Z,99535.66
2022-07-30T14:34:24.496Z,99543.84
2022-07-30T14:36:51.913Z,99550.06
2022-07-30T14:39:20.519Z,99543.69
2022-07-30T14:41:48.328Z,99551.50
2022-07-30T14:44:19.893Z,99547.88
2022-07-30T14:46:52.524Z,99539.25
2022-07-30T14:49:22.750Z,99538.28
2022-07-30T14:51:51.576Z,99538.22
2022-07-30T14:54:19.300Z,99538.69
2022-07-30T14:56:47.036Z,99534.25
2022-07-30T14:59:14.567Z,99534.50
2022-07-30T15:01:42.291Z,99534.97
2022-07-30T15:04:10.667Z,99537.34
2022-07-30T15:06:38.325Z,99531.66
2022-07-30T15:09:05.732Z,99524.41
2022-07-30T15:11:44.879Z,99515.56
2022-07-30T15:14:21.305Z,99521.44
2022-07-30T15:16:49.019Z,99527.22
2022-07-30T15:19:16.552Z,99525.09
2022-07-30T15:21:44.870Z,99514.63
2022-07-30T15:24:12.601Z,99509.06
2022-07-30T15:26:40.016Z,99505.59
2022-07-30T15:29:11.648Z,99517.66
2022-07-30T15:31:40.911Z,99520.56
2022-07-30T15:34:12.605Z,99509.25
2022-07-30T15:36:40.075Z,99520.41
2022-07-30T15:39:07.782Z,99524.38
2022-07-30T15:41:36.735Z,99525.81
2022-07-30T15:44:04.304Z,99535.72
2022-07-30T15:46:32.064Z,99532.50
2022-07-30T15:48:59.561Z,99530.66
2022-07-30T15:51:27.850Z,99537.44
2022-07-30T15:53:55.829Z,99535.81
2022-07-30T15:56:23.219Z,99538.53
2022-07-30T15:58:50.966Z,99546.16
2022-07-30T16:01:18.675Z,99559.06
2022-07-30T16:03:46.468Z,99562.81
2022-07-30T16:06:14.663Z,99556.63
2022-07-30T16:08:42.081Z,99571.06
2022-07-30T16:11:11.006Z,99561.59
2022-07-30T16:13:38.607Z,99553.06
2022-07-30T16:16:06.095Z,99570.31
2022-07-30T16:18:33.780Z,99572.66
2022-07-30T16:21:01.406Z,99572.28
2022-07-30T16:23:36.608Z,99571.16
2022-07-30T16:26:05.073Z,99574.06
2022-07-30T16:28:32.520Z,99582.34
2022-07-30T16:30:59.953Z,99583.25
2022-07-30T16:33:27.656Z,99574.34
2022-07-30T16:35:55.343Z,99582.66
2022-07-30T16:38:23.521Z,99584.19
2022-07-30T16:40:51.741Z,99565.16
2022-07-30T16:43:19.803Z,99580.78
2022-07-30T16:45:47.827Z,99568.97
2022-07-30T16:48:15.613Z,99576.72
2022-07-30T16:50:43.162Z,99580.63
2022-07-30T16:53:14.100Z,99587.38
2022-07-30T16:55:46.586Z,99593.38
2022-07-30T16:58:14.129Z,99599.91
2022-07-30T17:00:42.046Z,99586.56
2022-07-30T17:03:09.551Z,99589.53
2022-07-30T17:05:45.169Z,99606.31
2022-07-30T17:08:13.614Z,99609.22
2022-07-30T17:10:41.614Z,99611.00
2022-07-30T17:13:09.209Z,99616.56
2022-07-30T17:15:36.910Z,99612.66
2022-07-30T17:18:04.672Z,99609.94
2022-07-30T17:20:32.519Z,99614.50
2022-07-30T17:23:00.225Z,99608.66
2022-07-30T17:25:27.820Z,99603.75
2022-07-30T17:27:59.213Z,99603.88
2022-07-30T17:30:27.609Z,99598.59
2022-07-30T17:32:55.175Z,99592.03
2022-07-30T17:35:22.890Z,99588.53
2022-07-30T17:37:50.756Z,99588.69
2022-07-30T17:40:28.678Z,99578.03
2022-07-30T17:43:04.039Z,99581.44
2022-07-30T17:45:33.445Z,99570.53
2022-07-30T17:48:02.031Z,99569.69
2022-07-30T17:50:30.829Z,99555.44
2022-07-30T17:52:58.284Z,99557.06
2022-07-30T17:55:27.985Z,99562.50
2022-07-30T17:57:55.553Z,99564.44
2022-07-30T18:00:23.213Z,99561.69
2022-07-30T18:02:50.948Z,99563.34
2022-07-30T18:05:18.828Z,99563.47
2022-07-30T18:07:46.253Z,99558.06
2022-07-30T18:10:14.100Z,99557.19
2022-07-30T18:12:49.059Z,99557.31
2022-07-30T18:15:18.296Z,99559.19
2022-07-30T18:17:46.098Z,99549.66
2022-07-30T18:20:14.132Z,99545.19
2022-07-30T18:22:41.950Z,99549.66
2022-07-30T18:25:18.857Z,99545.25
2022-07-30T18:27:47.943Z,99557.66
2022-07-30T18:30:15.809Z,99556.81
2022-07-30T18:32:46.438Z,99558.72
2022-07-30T18:35:15.229Z,99555.16
2022-07-30T18:37:43.705Z,99566.72
2022-07-30T18:40:13.065Z,99556.09
2022-07-30T18:42:41.205Z,99555.88
2022-07-30T18:45:10.307Z,99565.56
2022-07-30T18:47:37.728Z,99574.59
2022-07-30T18:50:06.007Z,99572.75
2022-07-30T18:52:33.998Z,99566.16
2022-07-30T18:55:02.116Z,99569.41
2022-07-30T18:57:29.848Z,99583.03
2022-07-30T18:59:57.228Z,99585.72
2022-07-30T19:02:25.691Z,99589.31
2022-07-30T19:04:53.568Z,99591.09
2022-07-30T19:07:21.245Z,99604.34
2022-07-30T19:09:48.681Z,99595.50
2022-07-30T19:12:16.604Z,99605.19
2022-07-30T19:14:44.625Z,99610.56
2022-07-30T19:17:13.917Z,99601.06
2022-07-30T19:19:43.160Z,99616.81
2022-07-30T19:22:10.672Z,99616.72
2022-07-30T19:24:38.483Z,99621.00
2022-07-30T19:27:08.182Z,99626.56
2022-07-30T19:29:38.883Z,99619.16
2022-07-30T19:32:07.125Z,99632.53
2022-07-30T19:34:36.572Z,99620.81
2022-07-30T19:37:04.044Z,99623.47
2022-07-30T19:39:31.814Z,99624.62
2022-07-30T19:42:02.739Z,99625.00
2022-07-30T19:44:31.880Z,99621.94
2022-07-30T19:46:59.950Z,99625.84
2022-07-30T19:49:29.687Z,99630.81
2022-07-30T19:54:46.074Z,99628.22
2022-07-30T19:57:14.679Z,99628.91
2022-07-30T19:59:59.417Z,99631.16
2022-07-30T20:02:28.151Z,99641.19
2022-07-30T20:04:55.917Z,99637.88
2022-07-30T20:07:23.341Z,99633.50
2022-07-30T20:09:55.512Z,99633.59
2022-07-30T20:12:24.214Z,99636.13
2022-07-30T20:14:51.907Z,99635.19
2022-07-30T20:17:19.508Z,99642.28
2022-07-30T20:19:48.672Z,99644.84
2022-07-30T20:22:17.030Z,99648.47
2022-07-30T20:24:45.373Z,99644.88
2022-07-30T20:27:36.257Z,99637.91
2022-07-30T20:30:00.763Z,99641.28
2022-07-30T20:32:29.304Z,99631.72
2022-07-30T20:34:57.261Z,99636.19
2022-07-30T20:37:27.429Z,99634.47
2022-07-30T20:39:55.828Z,99630.13
2022-07-30T20:42:24.185Z,99633.69
2022-07-30T20:44:56.939Z,99634.31
2022-07-30T20:47:34.849Z,99633.38
2022-07-30T20:50:09.404Z,99615.28
2022-07-30T20:52:40.390Z,99614.69
2022-07-30T20:55:09.367Z,99608.34
2022-07-30T20:57:56.754Z,99622.22
2022-07-30T21:00:25.466Z,99614.34
2022-07-30T21:02:52.899Z,99617.91
2022-07-30T21:05:20.820Z,99614.41
2022-07-30T21:07:48.468Z,99626.63
2022-07-30T21:10:23.356Z,99628.44
2022-07-30T21:12:53.396Z,99627.59
2022-07-30T21:15:26.246Z,99625.84
2022-07-30T21:17:54.134Z,99615.31
2022-07-30T21:20:27.299Z,99621.38
2022-07-30T21:22:56.617Z,99619.63
2022-07-30T21:25:32.538Z,99612.63
2022-07-30T21:28:02.927Z,99610.81
2022-07-30T21:30:32.863Z,99609.09
2022-07-30T21:33:00.681Z,99611.69
2022-07-30T21:35:32.071Z,99616.06
2022-07-30T21:37:59.807Z,99612.59
2022-07-30T21:40:27.796Z,99606.38
2022-07-30T21:42:56.477Z,99614.22
2022-07-30T21:45:27.599Z,99616.88
2022-07-30T21:48:10.739Z,99619.63
2022-07-30T21:50:38.474Z,99615.25
2022-07-30T21:53:06.192Z,99624.88
2022-07-30T21:55:39.280Z,99616.19
2022-07-30T21:58:25.724Z,99612.50
2022-07-30T22:00:55.079Z,99616.09
2022-07-30T22:06:12.443Z,99609.00
2022-07-30T22:08:57.841Z,99609.78
2022-07-30T22:11:25.451Z,99609.09
2022-07-30T22:14:10.519Z,99603.69
2022-07-30T22:16:38.308Z,99605.50
2022-07-30T22:19:15.011Z,99600.31
2022-07-30T22:21:46.328Z,99608.09
2022-07-30T22:24:29.286Z,99595.13
2022-07-30T22:27:00.099Z,99594.19
2022-07-30T22:29:34.570Z,99584.53
2022-07-30T22:32:04.054Z,99584.47
2022-07-30T22:34:32.811Z,99589.81
2022-07-30T22:39:50.502Z,99577.50
2022-07-30T22:42:24.093Z,99589.75
2022-07-30T22:44:53.231Z,99587.03
2022-07-30T22:47:51.353Z,99588.03
2022-07-30T22:50:11.627Z,99577.31
2022-07-30T22:52:40.071Z,99573.78
2022-07-30T22:55:16.871Z,99573.13
2022-07-30T22:57:50.096Z,99565.25
2022-07-30T23:00:27.957Z,99559.16
2022-07-30T23:02:56.683Z,99556.50
2022-07-30T23:05:24.984Z,99559.03
2022-07-30T23:07:52.436Z,99555.53
2022-07-30T23:10:21.017Z,99557.25
2022-07-30T23:12:16.754Z,99629.13
2022-07-30T23:12:32.684Z,99615.97
2022-07-30T23:12:53.556Z,99553.84
2022-07-30T23:15:21.792Z,99559.94
2022-07-30T23:17:49.492Z,99557.34
2022-07-30T23:20:18.456Z,99559.03
2022-07-30T23:22:46.171Z,99558.91
2022-07-30T23:25:14.077Z,99560.53
2022-07-30T23:27:41.835Z,99553.38
2022-07-30T23:30:10.738Z,99557.06
2022-07-30T23:32:39.936Z,99554.44
2022-07-30T23:35:08.854Z,99547.28
2022-07-30T23:37:47.664Z,99551.13
2022-07-30T23:40:17.929Z,99550.84
2022-07-30T23:42:45.472Z,99555.44
2022-07-30T23:45:12.969Z,99559.66
2022-07-30T23:48:01.900Z,99555.97
2022-07-30T23:50:28.620Z,99549.91
2022-07-30T23:52:56.303Z,99554.19
2022-07-30T23:55:23.812Z,99554.22
2022-07-30T23:57:51.268Z,99548.22
